sensor_id;sensor_type;location;lat;lon;timestamp;temperature;humidity
34279;DHT22;20538;51.528;9.942;2023-05-07T00:00:42;12.60;99.90
34279;DHT22;20538;51.528;9.942;2023-05-07T00:03:08;12.50;99.90
34279;DHT22;20538;51.528;9.942;2023-05-07T00:05:33;12.50;99.90
34279;DHT22;20538;51.528;9.942;2023-05-07T00:07:59;12.50;99.90
34279;DHT22;20538;51.528;9.942;2023-05-07T00:10:25;12.50;99.90
34279;DHT22;20538;51.528;9.942;2023-05-07T00:12:51;12.50;99.90
34279;DHT22;20538;51.528;9.942;2023-05-07T00:15:16;12.60;99.90
34279;DHT22;20538;51.528;9.942;2023-05-07T00:17:42;12.50;99.90
34279;DHT22;20538;51.528;9.942;2023-05-07T00:20:08;12.50;99.90
34279;DHT22;20538;51.528;9.942;2023-05-07T00:22:34;12.40;99.90
34279;DHT22;20538;51.528;9.942;2023-05-07T00:24:59;12.50;99.90
34279;DHT22;20538;51.528;9.942;2023-05-07T00:27:25;12.40;99.90
34279;DHT22;20538;51.528;9.942;2023-05-07T00:29:54;12.50;99.90
34279;DHT22;20538;51.528;9.942;2023-05-07T00:32:20;12.50;99.90
34279;DHT22;20538;51.528;9.942;2023-05-07T00:34:45;12.50;99.90
34279;DHT22;20538;51.528;9.942;2023-05-07T00:37:11;12.50;99.90
34279;DHT22;20538;51.528;9.942;2023-05-07T00:39:37;12.40;99.90
34279;DHT22;20538;51.528;9.942;2023-05-07T00:42:03;12.40;99.90
34279;DHT22;20538;51.528;9.942;2023-05-07T00:44:29;12.40;99.90
34279;DHT22;20538;51.528;9.942;2023-05-07T00:46:57;12.40;99.90
34279;DHT22;20538;51.528;9.942;2023-05-07T00:49:25;12.40;99.90
34279;DHT22;20538;51.528;9.942;2023-05-07T00:51:54;12.40;99.90
34279;DHT22;20538;51.528;9.942;2023-05-07T00:54:20;12.30;99.90
34279;DHT22;20538;51.528;9.942;2023-05-07T00:56:47;12.30;99.90
34279;DHT22;20538;51.528;9.942;2023-05-07T00:59:13;12.20;99.90
34279;DHT22;20538;51.528;9.942;2023-05-07T01:01:38;12.20;99.90
34279;DHT22;20538;51.528;9.942;2023-05-07T01:04:04;12.20;99.90
34279;DHT22;20538;51.528;9.942;2023-05-07T01:06:31;12.20;99.90
34279;DHT22;20538;51.528;9.942;2023-05-07T01:08:57;12.20;99.90
34279;DHT22;20538;51.528;9.942;2023-05-07T01:11:23;12.30;99.90
34279;DHT22;20538;51.528;9.942;2023-05-07T01:13:50;12.20;99.90
34279;DHT22;20538;51.528;9.942;2023-05-07T01:16:16;12.20;99.90
34279;DHT22;20538;51.528;9.942;2023-05-07T01:18:42;12.20;99.90
34279;DHT22;20538;51.528;9.942;2023-05-07T01:21:10;12.20;99.90
34279;DHT22;20538;51.528;9.942;2023-05-07T01:23:36;12.10;99.90
34279;DHT22;20538;51.528;9.942;2023-05-07T01:26:02;12.10;99.90
34279;DHT22;20538;51.528;9.942;2023-05-07T01:28:28;12.10;99.90
34279;DHT22;20538;51.528;9.942;2023-05-07T01:31:00;12.10;99.90
34279;DHT22;20538;51.528;9.942;2023-05-07T01:33:29;12.10;99.90
34279;DHT22;20538;51.528;9.942;2023-05-07T01:35:57;12.10;99.90
34279;DHT22;20538;51.528;9.942;2023-05-07T01:38:26;12.00;99.90
34279;DHT22;20538;51.528;9.942;2023-05-07T01:40:52;12.10;99.90
34279;DHT22;20538;51.528;9.942;2023-05-07T01:43:19;12.10;99.90
34279;DHT22;20538;51.528;9.942;2023-05-07T01:45:45;11.80;99.90
34279;DHT22;20538;51.528;9.942;2023-05-07T01:48:11;11.80;99.90
34279;DHT22;20538;51.528;9.942;2023-05-07T01:50:38;11.90;99.90
34279;DHT22;20538;51.528;9.942;2023-05-07T01:53:04;11.90;99.90
34279;DHT22;20538;51.528;9.942;2023-05-07T01:55:30;11.80;99.90
34279;DHT22;20538;51.528;9.942;2023-05-07T01:57:56;11.90;99.90
34279;DHT22;20538;51.528;9.942;2023-05-07T02:00:21;11.90;99.90
34279;DHT22;20538;51.528;9.942;2023-05-07T02:02:47;11.90;99.90
34279;DHT22;20538;51.528;9.942;2023-05-07T02:05:13;11.90;99.90
34279;DHT22;20538;51.528;9.942;2023-05-07T02:07:38;11.70;99.90
34279;DHT22;20538;51.528;9.942;2023-05-07T02:10:04;11.70;99.90
34279;DHT22;20538;51.528;9.942;2023-05-07T02:12:30;11.70;99.90
34279;DHT22;20538;51.528;9.942;2023-05-07T02:14:56;11.80;99.90
34279;DHT22;20538;51.528;9.942;2023-05-07T02:17:21;11.80;99.90
34279;DHT22;20538;51.528;9.942;2023-05-07T02:19:47;11.80;99.90
34279;DHT22;20538;51.528;9.942;2023-05-07T02:22:12;11.80;99.90
34279;DHT22;20538;51.528;9.942;2023-05-07T02:24:38;11.70;99.90
34279;DHT22;20538;51.528;9.942;2023-05-07T02:27:04;11.50;99.90
34279;DHT22;20538;51.528;9.942;2023-05-07T02:29:30;11.60;99.90
34279;DHT22;20538;51.528;9.942;2023-05-07T02:31:55;11.70;99.90
34279;DHT22;20538;51.528;9.942;2023-05-07T02:34:21;11.70;99.90
34279;DHT22;20538;51.528;9.942;2023-05-07T02:36:47;11.60;99.90
34279;DHT22;20538;51.528;9.942;2023-05-07T02:39:13;11.70;99.90
34279;DHT22;20538;51.528;9.942;2023-05-07T02:41:39;11.60;99.90
34279;DHT22;20538;51.528;9.942;2023-05-07T02:44:05;11.60;99.90
34279;DHT22;20538;51.528;9.942;2023-05-07T02:46:30;11.50;99.90
34279;DHT22;20538;51.528;9.942;2023-05-07T02:48:56;11.50;99.90
34279;DHT22;20538;51.528;9.942;2023-05-07T02:51:22;11.50;99.90
34279;DHT22;20538;51.528;9.942;2023-05-07T02:53:48;11.50;99.90
34279;DHT22;20538;51.528;9.942;2023-05-07T02:56:14;11.40;99.90
34279;DHT22;20538;51.528;9.942;2023-05-07T02:58:39;11.40;99.90
34279;DHT22;20538;51.528;9.942;2023-05-07T03:01:06;11.20;99.90
34279;DHT22;20538;51.528;9.942;2023-05-07T03:03:32;11.30;99.90
34279;DHT22;20538;51.528;9.942;2023-05-07T03:05:57;11.20;99.90
34279;DHT22;20538;51.528;9.942;2023-05-07T03:08:23;11.00;99.90
34279;DHT22;20538;51.528;9.942;2023-05-07T03:10:49;11.10;99.90
34279;DHT22;20538;51.528;9.942;2023-05-07T03:13:15;11.20;99.90
34279;DHT22;20538;51.528;9.942;2023-05-07T03:15:41;11.20;99.90
34279;DHT22;20538;51.528;9.942;2023-05-07T03:18:06;11.30;99.90
34279;DHT22;20538;51.528;9.942;2023-05-07T03:20:32;11.30;99.90
34279;DHT22;20538;51.528;9.942;2023-05-07T03:22:58;11.30;99.90
34279;DHT22;20538;51.528;9.942;2023-05-07T03:25:23;11.30;99.90
34279;DHT22;20538;51.528;9.942;2023-05-07T03:27:49;11.30;99.90
34279;DHT22;20538;51.528;9.942;2023-05-07T03:30:14;11.20;99.90
34279;DHT22;20538;51.528;9.942;2023-05-07T03:32:40;11.10;99.90
34279;DHT22;20538;51.528;9.942;2023-05-07T03:35:06;11.30;99.90
34279;DHT22;20538;51.528;9.942;2023-05-07T03:37:32;11.30;99.90
34279;DHT22;20538;51.528;9.942;2023-05-07T03:39:58;11.20;99.90
34279;DHT22;20538;51.528;9.942;2023-05-07T03:42:24;11.20;99.90
34279;DHT22;20538;51.528;9.942;2023-05-07T03:44:50;11.20;99.90
34279;DHT22;20538;51.528;9.942;2023-05-07T03:47:15;11.20;99.90
34279;DHT22;20538;51.528;9.942;2023-05-07T03:49:41;11.20;99.90
34279;DHT22;20538;51.528;9.942;2023-05-07T03:52:06;11.30;99.90
34279;DHT22;20538;51.528;9.942;2023-05-07T03:54:32;11.20;99.90
34279;DHT22;20538;51.528;9.942;2023-05-07T03:56:58;11.20;99.90
34279;DHT22;20538;51.528;9.942;2023-05-07T03:59:23;11.20;99.90
34279;DHT22;20538;51.528;9.942;2023-05-07T04:01:49;11.10;99.90
34279;DHT22;20538;51.528;9.942;2023-05-07T04:04:15;11.10;99.90
34279;DHT22;20538;51.528;9.942;2023-05-07T04:06:41;11.20;99.90
34279;DHT22;20538;51.528;9.942;2023-05-07T04:09:07;11.00;99.90
34279;DHT22;20538;51.528;9.942;2023-05-07T04:11:33;11.00;99.90
34279;DHT22;20538;51.528;9.942;2023-05-07T04:13:58;11.00;99.90
34279;DHT22;20538;51.528;9.942;2023-05-07T04:16:24;11.00;99.90
34279;DHT22;20538;51.528;9.942;2023-05-07T04:18:50;11.10;99.90
34279;DHT22;20538;51.528;9.942;2023-05-07T04:21:17;11.10;99.90
34279;DHT22;20538;51.528;9.942;2023-05-07T04:23:42;11.10;99.90
34279;DHT22;20538;51.528;9.942;2023-05-07T04:26:08;11.00;99.90
34279;DHT22;20538;51.528;9.942;2023-05-07T04:28:34;11.00;99.90
34279;DHT22;20538;51.528;9.942;2023-05-07T04:31:00;11.00;99.90
34279;DHT22;20538;51.528;9.942;2023-05-07T04:33:26;10.90;99.90
34279;DHT22;20538;51.528;9.942;2023-05-07T04:35:51;10.90;99.90
34279;DHT22;20538;51.528;9.942;2023-05-07T04:38:17;10.90;99.90
34279;DHT22;20538;51.528;9.942;2023-05-07T04:40:44;11.00;99.90
34279;DHT22;20538;51.528;9.942;2023-05-07T04:43:10;10.90;99.90
34279;DHT22;20538;51.528;9.942;2023-05-07T04:45:36;11.00;99.90
34279;DHT22;20538;51.528;9.942;2023-05-07T04:48:02;11.00;99.90
34279;DHT22;20538;51.528;9.942;2023-05-07T04:50:27;11.00;99.90
34279;DHT22;20538;51.528;9.942;2023-05-07T04:52:53;11.00;99.90
34279;DHT22;20538;51.528;9.942;2023-05-07T04:55:19;11.00;99.90
34279;DHT22;20538;51.528;9.942;2023-05-07T04:57:44;10.90;99.90
34279;DHT22;20538;51.528;9.942;2023-05-07T05:00:11;11.00;99.90
34279;DHT22;20538;51.528;9.942;2023-05-07T05:02:40;11.00;99.90
34279;DHT22;20538;51.528;9.942;2023-05-07T05:05:06;11.00;99.90
34279;DHT22;20538;51.528;9.942;2023-05-07T05:07:32;10.90;99.90
34279;DHT22;20538;51.528;9.942;2023-05-07T05:09:58;10.90;99.90
34279;DHT22;20538;51.528;9.942;2023-05-07T05:12:26;11.00;99.90
34279;DHT22;20538;51.528;9.942;2023-05-07T05:14:52;11.00;99.90
34279;DHT22;20538;51.528;9.942;2023-05-07T05:17:17;10.90;99.90
34279;DHT22;20538;51.528;9.942;2023-05-07T05:19:43;10.90;99.90
34279;DHT22;20538;51.528;9.942;2023-05-07T05:22:09;11.00;99.90
34279;DHT22;20538;51.528;9.942;2023-05-07T05:24:34;11.00;99.90
34279;DHT22;20538;51.528;9.942;2023-05-07T05:27:00;11.00;99.90
34279;DHT22;20538;51.528;9.942;2023-05-07T05:29:26;11.00;99.90
34279;DHT22;20538;51.528;9.942;2023-05-07T05:31:52;10.90;99.90
34279;DHT22;20538;51.528;9.942;2023-05-07T05:34:17;11.00;99.90
34279;DHT22;20538;51.528;9.942;2023-05-07T05:36:45;11.00;99.90
34279;DHT22;20538;51.528;9.942;2023-05-07T05:39:10;11.10;99.90
34279;DHT22;20538;51.528;9.942;2023-05-07T05:41:36;11.10;99.90
34279;DHT22;20538;51.528;9.942;2023-05-07T05:44:02;11.20;99.90
34279;DHT22;20538;51.528;9.942;2023-05-07T05:46:27;11.20;99.90
34279;DHT22;20538;51.528;9.942;2023-05-07T05:48:53;11.10;99.90
34279;DHT22;20538;51.528;9.942;2023-05-07T05:51:20;11.10;99.90
34279;DHT22;20538;51.528;9.942;2023-05-07T05:53:45;11.20;99.90
34279;DHT22;20538;51.528;9.942;2023-05-07T05:56:11;11.20;99.90
34279;DHT22;20538;51.528;9.942;2023-05-07T05:58:40;11.30;99.90
34279;DHT22;20538;51.528;9.942;2023-05-07T06:01:06;11.10;99.90
34279;DHT22;20538;51.528;9.942;2023-05-07T06:03:31;11.30;99.90
34279;DHT22;20538;51.528;9.942;2023-05-07T06:06:00;11.10;99.90
34279;DHT22;20538;51.528;9.942;2023-05-07T06:08:28;11.20;99.90
34279;DHT22;20538;51.528;9.942;2023-05-07T06:10:54;11.00;99.90
34279;DHT22;20538;51.528;9.942;2023-05-07T06:13:20;11.20;99.90
34279;DHT22;20538;51.528;9.942;2023-05-07T06:15:46;11.30;99.90
34279;DHT22;20538;51.528;9.942;2023-05-07T06:18:11;11.40;99.90
34279;DHT22;20538;51.528;9.942;2023-05-07T06:20:37;11.50;99.90
34279;DHT22;20538;51.528;9.942;2023-05-07T06:23:03;11.40;99.90
34279;DHT22;20538;51.528;9.942;2023-05-07T06:25:28;11.50;99.90
34279;DHT22;20538;51.528;9.942;2023-05-07T06:27:54;11.40;99.90
34279;DHT22;20538;51.528;9.942;2023-05-07T06:30:19;11.40;99.90
34279;DHT22;20538;51.528;9.942;2023-05-07T06:32:45;11.50;99.90
34279;DHT22;20538;51.528;9.942;2023-05-07T06:35:11;11.40;99.90
34279;DHT22;20538;51.528;9.942;2023-05-07T06:37:36;11.50;99.90
34279;DHT22;20538;51.528;9.942;2023-05-07T06:40:05;11.50;99.90
34279;DHT22;20538;51.528;9.942;2023-05-07T06:42:32;11.60;99.90
34279;DHT22;20538;51.528;9.942;2023-05-07T06:44:58;11.60;99.90
34279;DHT22;20538;51.528;9.942;2023-05-07T06:47:23;11.40;99.90
34279;DHT22;20538;51.528;9.942;2023-05-07T06:49:49;11.50;99.90
34279;DHT22;20538;51.528;9.942;2023-05-07T06:52:15;11.60;99.90
34279;DHT22;20538;51.528;9.942;2023-05-07T06:54:40;11.50;99.90
34279;DHT22;20538;51.528;9.942;2023-05-07T06:57:06;11.50;99.90
34279;DHT22;20538;51.528;9.942;2023-05-07T06:59:32;11.40;99.90
34279;DHT22;20538;51.528;9.942;2023-05-07T07:01:58;11.30;99.90
34279;DHT22;20538;51.528;9.942;2023-05-07T07:04:23;11.40;99.90
34279;DHT22;20538;51.528;9.942;2023-05-07T07:06:49;11.60;99.90
34279;DHT22;20538;51.528;9.942;2023-05-07T07:09:17;11.50;99.90
34279;DHT22;20538;51.528;9.942;2023-05-07T07:11:42;11.50;99.90
34279;DHT22;20538;51.528;9.942;2023-05-07T07:14:08;11.60;99.90
34279;DHT22;20538;51.528;9.942;2023-05-07T07:16:33;11.70;99.90
34279;DHT22;20538;51.528;9.942;2023-05-07T07:18:59;11.50;99.90
34279;DHT22;20538;51.528;9.942;2023-05-07T07:21:25;11.60;99.90
34279;DHT22;20538;51.528;9.942;2023-05-07T07:23:50;11.70;99.90
34279;DHT22;20538;51.528;9.942;2023-05-07T07:26:17;11.70;99.90
34279;DHT22;20538;51.528;9.942;2023-05-07T07:28:44;11.60;99.90
34279;DHT22;20538;51.528;9.942;2023-05-07T07:31:09;11.30;99.90
34279;DHT22;20538;51.528;9.942;2023-05-07T07:33:35;11.40;99.90
34279;DHT22;20538;51.528;9.942;2023-05-07T07:36:01;11.20;99.90
34279;DHT22;20538;51.528;9.942;2023-05-07T07:38:26;11.30;99.90
34279;DHT22;20538;51.528;9.942;2023-05-07T07:40:52;11.60;99.90
34279;DHT22;20538;51.528;9.942;2023-05-07T07:43:17;11.50;99.90
34279;DHT22;20538;51.528;9.942;2023-05-07T07:45:43;11.10;99.90
34279;DHT22;20538;51.528;9.942;2023-05-07T07:48:09;11.00;99.90
34279;DHT22;20538;51.528;9.942;2023-05-07T07:50:34;11.10;99.90
34279;DHT22;20538;51.528;9.942;2023-05-07T07:53:00;11.30;99.90
34279;DHT22;20538;51.528;9.942;2023-05-07T07:55:26;11.40;99.90
34279;DHT22;20538;51.528;9.942;2023-05-07T07:57:52;11.30;99.90
34279;DHT22;20538;51.528;9.942;2023-05-07T08:00:18;11.30;99.90
34279;DHT22;20538;51.528;9.942;2023-05-07T08:02:44;11.30;99.90
34279;DHT22;20538;51.528;9.942;2023-05-07T08:05:09;11.40;99.90
34279;DHT22;20538;51.528;9.942;2023-05-07T08:07:35;11.60;99.90
34279;DHT22;20538;51.528;9.942;2023-05-07T08:10:01;11.40;99.90
34279;DHT22;20538;51.528;9.942;2023-05-07T08:12:27;11.50;99.90
34279;DHT22;20538;51.528;9.942;2023-05-07T08:14:53;11.60;99.90
34279;DHT22;20538;51.528;9.942;2023-05-07T08:17:18;11.60;99.90
34279;DHT22;20538;51.528;9.942;2023-05-07T08:19:44;11.40;99.90
34279;DHT22;20538;51.528;9.942;2023-05-07T08:22:10;11.40;99.90
34279;DHT22;20538;51.528;9.942;2023-05-07T08:24:36;11.60;99.90
34279;DHT22;20538;51.528;9.942;2023-05-07T08:27:02;11.60;99.90
34279;DHT22;20538;51.528;9.942;2023-05-07T08:29:27;11.60;99.90
34279;DHT22;20538;51.528;9.942;2023-05-07T08:31:53;11.60;99.90
34279;DHT22;20538;51.528;9.942;2023-05-07T08:34:19;11.70;99.90
34279;DHT22;20538;51.528;9.942;2023-05-07T08:36:45;11.80;99.90
34279;DHT22;20538;51.528;9.942;2023-05-07T08:39:14;11.90;99.90
34279;DHT22;20538;51.528;9.942;2023-05-07T08:41:40;12.00;99.90
34279;DHT22;20538;51.528;9.942;2023-05-07T08:44:12;12.00;99.90
34279;DHT22;20538;51.528;9.942;2023-05-07T08:46:39;12.10;99.90
34279;DHT22;20538;51.528;9.942;2023-05-07T08:49:05;12.10;99.90
34279;DHT22;20538;51.528;9.942;2023-05-07T08:51:31;12.10;99.90
34279;DHT22;20538;51.528;9.942;2023-05-07T08:53:58;12.00;99.90
34279;DHT22;20538;51.528;9.942;2023-05-07T08:56:24;12.20;99.90
34279;DHT22;20538;51.528;9.942;2023-05-07T08:58:50;12.30;99.90
34279;DHT22;20538;51.528;9.942;2023-05-07T09:01:16;12.40;99.90
34279;DHT22;20538;51.528;9.942;2023-05-07T09:03:45;12.00;99.90
34279;DHT22;20538;51.528;9.942;2023-05-07T09:06:11;11.90;99.90
34279;DHT22;20538;51.528;9.942;2023-05-07T09:08:37;12.00;99.90
34279;DHT22;20538;51.528;9.942;2023-05-07T09:11:03;12.20;99.90
34279;DHT22;20538;51.528;9.942;2023-05-07T09:13:29;12.20;99.90
34279;DHT22;20538;51.528;9.942;2023-05-07T09:15:56;12.40;99.90
34279;DHT22;20538;51.528;9.942;2023-05-07T09:18:24;12.30;99.90
34279;DHT22;20538;51.528;9.942;2023-05-07T09:20:51;12.20;99.90
34279;DHT22;20538;51.528;9.942;2023-05-07T09:23:17;12.50;99.90
34279;DHT22;20538;51.528;9.942;2023-05-07T09:25:43;12.60;99.90
34279;DHT22;20538;51.528;9.942;2023-05-07T09:28:09;12.70;99.90
34279;DHT22;20538;51.528;9.942;2023-05-07T09:30:38;12.70;99.90
34279;DHT22;20538;51.528;9.942;2023-05-07T09:33:04;12.60;99.90
34279;DHT22;20538;51.528;9.942;2023-05-07T09:35:30;12.80;99.90
34279;DHT22;20538;51.528;9.942;2023-05-07T09:37:57;12.90;99.90
34279;DHT22;20538;51.528;9.942;2023-05-07T09:40:25;13.10;99.90
34279;DHT22;20538;51.528;9.942;2023-05-07T09:42:51;13.10;99.90
34279;DHT22;20538;51.528;9.942;2023-05-07T09:45:30;13.10;99.90
34279;DHT22;20538;51.528;9.942;2023-05-07T09:47:58;13.20;99.90
34279;DHT22;20538;51.528;9.942;2023-05-07T09:50:28;13.20;99.90
34279;DHT22;20538;51.528;9.942;2023-05-07T09:52:55;13.00;99.90
34279;DHT22;20538;51.528;9.942;2023-05-07T09:55:22;13.20;99.90
34279;DHT22;20538;51.528;9.942;2023-05-07T09:57:51;13.20;99.90
34279;DHT22;20538;51.528;9.942;2023-05-07T10:00:21;13.10;99.90
34279;DHT22;20538;51.528;9.942;2023-05-07T10:02:49;12.90;99.90
34279;DHT22;20538;51.528;9.942;2023-05-07T10:05:15;13.00;99.90
34279;DHT22;20538;51.528;9.942;2023-05-07T10:07:42;12.80;99.90
34279;DHT22;20538;51.528;9.942;2023-05-07T10:10:09;12.80;99.90
34279;DHT22;20538;51.528;9.942;2023-05-07T10:12:35;13.00;99.90
34279;DHT22;20538;51.528;9.942;2023-05-07T10:15:11;12.90;99.90
34279;DHT22;20538;51.528;9.942;2023-05-07T10:17:40;13.00;99.90
34279;DHT22;20538;51.528;9.942;2023-05-07T10:20:07;12.80;99.90
34279;DHT22;20538;51.528;9.942;2023-05-07T10:25:09;13.00;99.90
34279;DHT22;20538;51.528;9.942;2023-05-07T10:27:39;13.30;99.90
34279;DHT22;20538;51.528;9.942;2023-05-07T10:30:26;13.70;99.90
34279;DHT22;20538;51.528;9.942;2023-05-07T10:32:57;13.30;99.90
34279;DHT22;20538;51.528;9.942;2023-05-07T10:35:36;13.90;99.90
34279;DHT22;20538;51.528;9.942;2023-05-07T10:38:03;14.00;99.90
34279;DHT22;20538;51.528;9.942;2023-05-07T10:40:30;13.90;99.90
34279;DHT22;20538;51.528;9.942;2023-05-07T10:43:01;13.90;99.90
34279;DHT22;20538;51.528;9.942;2023-05-07T10:45:28;14.10;99.90
34279;DHT22;20538;51.528;9.942;2023-05-07T10:48:15;14.40;99.90
34279;DHT22;20538;51.528;9.942;2023-05-07T10:50:44;14.30;99.90
34279;DHT22;20538;51.528;9.942;2023-05-07T10:55:42;14.40;99.90
34279;DHT22;20538;51.528;9.942;2023-05-07T10:58:27;14.50;99.90
34279;DHT22;20538;51.528;9.942;2023-05-07T11:01:00;14.60;99.90
34279;DHT22;20538;51.528;9.942;2023-05-07T11:03:26;14.20;99.90
34279;DHT22;20538;51.528;9.942;2023-05-07T11:06:24;13.70;99.90
34279;DHT22;20538;51.528;9.942;2023-05-07T11:08:57;14.00;99.90
34279;DHT22;20538;51.528;9.942;2023-05-07T11:14:11;13.50;99.90
34279;DHT22;20538;51.528;9.942;2023-05-07T11:16:37;13.50;99.90
34279;DHT22;20538;51.528;9.942;2023-05-07T11:19:04;13.90;99.90
34279;DHT22;20538;51.528;9.942;2023-05-07T11:24:02;14.40;99.90
34279;DHT22;20538;51.528;9.942;2023-05-07T11:26:30;14.60;99.90
34279;DHT22;20538;51.528;9.942;2023-05-07T11:28:56;14.70;99.90
34279;DHT22;20538;51.528;9.942;2023-05-07T11:31:27;15.00;99.90
34279;DHT22;20538;51.528;9.942;2023-05-07T11:33:54;15.20;99.90
34279;DHT22;20538;51.528;9.942;2023-05-07T11:36:22;14.80;99.90
34279;DHT22;20538;51.528;9.942;2023-05-07T11:38:49;14.70;99.90
34279;DHT22;20538;51.528;9.942;2023-05-07T11:41:16;14.90;99.90
34279;DHT22;20538;51.528;9.942;2023-05-07T11:43:59;14.90;99.90
34279;DHT22;20538;51.528;9.942;2023-05-07T11:46:26;14.60;99.90
34279;DHT22;20538;51.528;9.942;2023-05-07T11:48:51;15.00;99.90
34279;DHT22;20538;51.528;9.942;2023-05-07T11:51:22;15.10;99.90
34279;DHT22;20538;51.528;9.942;2023-05-07T11:53:48;15.10;99.90
34279;DHT22;20538;51.528;9.942;2023-05-07T11:56:16;15.00;99.90
34279;DHT22;20538;51.528;9.942;2023-05-07T11:58:43;14.90;99.90
34279;DHT22;20538;51.528;9.942;2023-05-07T12:01:13;15.20;99.90
34279;DHT22;20538;51.528;9.942;2023-05-07T12:03:43;14.70;99.90
34279;DHT22;20538;51.528;9.942;2023-05-07T12:06:14;15.10;99.90
34279;DHT22;20538;51.528;9.942;2023-05-07T12:08:41;15.00;99.90
34279;DHT22;20538;51.528;9.942;2023-05-07T12:11:08;14.50;99.90
34279;DHT22;20538;51.528;9.942;2023-05-07T12:13:35;14.80;99.90
34279;DHT22;20538;51.528;9.942;2023-05-07T12:16:01;15.30;99.90
34279;DHT22;20538;51.528;9.942;2023-05-07T12:18:29;15.00;99.90
34279;DHT22;20538;51.528;9.942;2023-05-07T12:20:55;15.30;99.90
34279;DHT22;20538;51.528;9.942;2023-05-07T12:23:21;15.60;99.90
34279;DHT22;20538;51.528;9.942;2023-05-07T12:25:47;15.30;99.90
34279;DHT22;20538;51.528;9.942;2023-05-07T12:28:17;14.70;99.90
34279;DHT22;20538;51.528;9.942;2023-05-07T12:30:47;15.10;99.90
34279;DHT22;20538;51.528;9.942;2023-05-07T12:33:17;15.50;99.90
34279;DHT22;20538;51.528;9.942;2023-05-07T12:35:44;15.70;99.90
34279;DHT22;20538;51.528;9.942;2023-05-07T12:38:12;15.80;99.90
34279;DHT22;20538;51.528;9.942;2023-05-07T12:43:05;15.40;99.90
34279;DHT22;20538;51.528;9.942;2023-05-07T12:45:31;15.50;99.90
34279;DHT22;20538;51.528;9.942;2023-05-07T12:48:01;15.70;99.90
34279;DHT22;20538;51.528;9.942;2023-05-07T12:50:36;15.80;99.90
34279;DHT22;20538;51.528;9.942;2023-05-07T12:53:05;15.90;99.90
34279;DHT22;20538;51.528;9.942;2023-05-07T12:55:32;15.90;99.90
34279;DHT22;20538;51.528;9.942;2023-05-07T12:58:00;15.70;99.90
34279;DHT22;20538;51.528;9.942;2023-05-07T13:00:37;16.00;99.90
34279;DHT22;20538;51.528;9.942;2023-05-07T13:03:03;16.00;99.90
34279;DHT22;20538;51.528;9.942;2023-05-07T13:05:28;15.50;99.90
34279;DHT22;20538;51.528;9.942;2023-05-07T13:07:56;14.80;99.90
34279;DHT22;20538;51.528;9.942;2023-05-07T13:10:23;15.20;99.90
34279;DHT22;20538;51.528;9.942;2023-05-07T13:12:50;15.50;99.90
34279;DHT22;20538;51.528;9.942;2023-05-07T13:15:16;15.70;99.90
34279;DHT22;20538;51.528;9.942;2023-05-07T13:17:42;16.10;99.90
34279;DHT22;20538;51.528;9.942;2023-05-07T13:20:11;16.40;99.90
34279;DHT22;20538;51.528;9.942;2023-05-07T13:22:38;16.60;99.90
34279;DHT22;20538;51.528;9.942;2023-05-07T13:25:04;16.40;99.90
34279;DHT22;20538;51.528;9.942;2023-05-07T13:27:30;15.90;99.90
34279;DHT22;20538;51.528;9.942;2023-05-07T13:29:56;15.30;99.90
34279;DHT22;20538;51.528;9.942;2023-05-07T13:32:22;16.20;99.90
34279;DHT22;20538;51.528;9.942;2023-05-07T13:34:48;16.00;99.90
34279;DHT22;20538;51.528;9.942;2023-05-07T13:37:13;15.90;99.90
34279;DHT22;20538;51.528;9.942;2023-05-07T13:39:39;15.90;99.90
34279;DHT22;20538;51.528;9.942;2023-05-07T13:42:06;16.00;99.90
34279;DHT22;20538;51.528;9.942;2023-05-07T13:44:32;15.70;99.90
34279;DHT22;20538;51.528;9.942;2023-05-07T13:46:58;15.00;99.90
34279;DHT22;20538;51.528;9.942;2023-05-07T13:49:26;15.20;99.90
34279;DHT22;20538;51.528;9.942;2023-05-07T13:51:52;15.10;99.90
34279;DHT22;20538;51.528;9.942;2023-05-07T13:54:18;15.50;99.90
34279;DHT22;20538;51.528;9.942;2023-05-07T13:56:44;15.60;99.90
34279;DHT22;20538;51.528;9.942;2023-05-07T13:59:10;15.30;99.90
34279;DHT22;20538;51.528;9.942;2023-05-07T14:01:36;15.00;99.90
34279;DHT22;20538;51.528;9.942;2023-05-07T14:04:02;15.00;99.90
34279;DHT22;20538;51.528;9.942;2023-05-07T14:06:31;15.00;99.90
34279;DHT22;20538;51.528;9.942;2023-05-07T14:08:56;15.10;99.90
34279;DHT22;20538;51.528;9.942;2023-05-07T14:11:23;15.40;99.90
34279;DHT22;20538;51.528;9.942;2023-05-07T14:13:48;15.50;99.90
34279;DHT22;20538;51.528;9.942;2023-05-07T14:16:15;15.90;99.90
34279;DHT22;20538;51.528;9.942;2023-05-07T14:18:40;15.80;99.90
34279;DHT22;20538;51.528;9.942;2023-05-07T14:21:06;14.90;99.90
34279;DHT22;20538;51.528;9.942;2023-05-07T14:23:32;15.60;99.90
34279;DHT22;20538;51.528;9.942;2023-05-07T14:25:58;15.60;99.90
34279;DHT22;20538;51.528;9.942;2023-05-07T14:28:26;15.30;99.90
34279;DHT22;20538;51.528;9.942;2023-05-07T14:30:52;15.60;99.90
34279;DHT22;20538;51.528;9.942;2023-05-07T14:33:18;16.00;99.90
34279;DHT22;20538;51.528;9.942;2023-05-07T14:35:43;16.20;99.90
34279;DHT22;20538;51.528;9.942;2023-05-07T14:38:14;15.80;99.90
34279;DHT22;20538;51.528;9.942;2023-05-07T14:40:39;16.10;99.90
34279;DHT22;20538;51.528;9.942;2023-05-07T14:43:05;15.80;99.90
34279;DHT22;20538;51.528;9.942;2023-05-07T14:45:31;15.40;99.90
34279;DHT22;20538;51.528;9.942;2023-05-07T14:47:56;15.70;99.90
34279;DHT22;20538;51.528;9.942;2023-05-07T14:50:22;15.70;99.90
34279;DHT22;20538;51.528;9.942;2023-05-07T14:52:47;16.10;99.90
34279;DHT22;20538;51.528;9.942;2023-05-07T14:55:13;15.90;99.90
34279;DHT22;20538;51.528;9.942;2023-05-07T14:57:39;16.10;99.90
34279;DHT22;20538;51.528;9.942;2023-05-07T15:00:05;16.20;99.90
34279;DHT22;20538;51.528;9.942;2023-05-07T15:02:32;16.20;99.90
34279;DHT22;20538;51.528;9.942;2023-05-07T15:04:59;16.30;99.90
34279;DHT22;20538;51.528;9.942;2023-05-07T15:07:24;16.50;99.90
34279;DHT22;20538;51.528;9.942;2023-05-07T15:09:50;16.50;99.90
34279;DHT22;20538;51.528;9.942;2023-05-07T15:12:16;16.40;99.90
34279;DHT22;20538;51.528;9.942;2023-05-07T15:14:42;16.50;99.90
34279;DHT22;20538;51.528;9.942;2023-05-07T15:17:07;16.50;99.90
34279;DHT22;20538;51.528;9.942;2023-05-07T15:19:33;16.60;99.90
34279;DHT22;20538;51.528;9.942;2023-05-07T15:21:59;15.90;99.90
34279;DHT22;20538;51.528;9.942;2023-05-07T15:24:28;16.40;99.90
34279;DHT22;20538;51.528;9.942;2023-05-07T15:26:54;15.10;99.90
34279;DHT22;20538;51.528;9.942;2023-05-07T15:29:19;15.40;99.90
34279;DHT22;20538;51.528;9.942;2023-05-07T15:31:45;15.40;99.90
34279;DHT22;20538;51.528;9.942;2023-05-07T15:34:11;15.90;99.90
34279;DHT22;20538;51.528;9.942;2023-05-07T15:36:37;16.10;99.90
34279;DHT22;20538;51.528;9.942;2023-05-07T15:39:02;16.00;99.90